sensor_id;sensor_type;location;lat;lon;timestamp;P1;durP1;ratioP1;P2;durP2;ratioP2
11111;SDS011;5609;49.466;8.468;2023-06-10T00:02:01;6.10;;;5.60;;
11111;SDS011;5609;49.466;8.468;2023-06-10T00:04:28;5.90;;;5.40;;
11111;SDS011;5609;49.466;8.468;2023-06-10T00:06:55;5.73;;;5.27;;
11111;SDS011;5609;49.466;8.468;2023-06-10T00:09:22;6.00;;;5.40;;
11111;SDS011;5609;49.466;8.468;2023-06-10T00:11:52;6.43;;;5.80;;
11111;SDS011;5609;49.466;8.468;2023-06-10T00:14:19;6.50;;;5.90;;
11111;SDS011;5609;49.466;8.468;2023-06-10T00:16:46;5.67;;;5.17;;
11111;SDS011;5609;49.466;8.468;2023-06-10T00:19:13;6.00;;;5.50;;
11111;SDS011;5609;49.466;8.468;2023-06-10T00:21:40;6.17;;;5.67;;
11111;SDS011;5609;49.466;8.468;2023-06-10T00:24:10;6.00;;;5.50;;
11111;SDS011;5609;49.466;8.468;2023-06-10T00:26:37;6.13;;;5.57;;
11111;SDS011;5609;49.466;8.468;2023-06-10T00:29:06;6.10;;;5.60;;
11111;SDS011;5609;49.466;8.468;2023-06-10T00:31:33;5.93;;;5.43;;
11111;SDS011;5609;49.466;8.468;2023-06-10T00:34:00;5.83;;;5.33;;
11111;SDS011;5609;49.466;8.468;2023-06-10T00:36:27;5.80;;;5.30;;
11111;SDS011;5609;49.466;8.468;2023-06-10T00:38:54;5.90;;;5.50;;
11111;SDS011;5609;49.466;8.468;2023-06-10T00:41:21;5.97;;;5.47;;
11111;SDS011;5609;49.466;8.468;2023-06-10T00:43:48;6.00;;;5.40;;
11111;SDS011;5609;49.466;8.468;2023-06-10T00:46:17;5.90;;;5.40;;
11111;SDS011;5609;49.466;8.468;2023-06-10T00:48:44;6.47;;;5.87;;
11111;SDS011;5609;49.466;8.468;2023-06-10T00:51:11;6.73;;;6.10;;
11111;SDS011;5609;49.466;8.468;2023-06-10T00:53:39;7.17;;;6.40;;
11111;SDS011;5609;49.466;8.468;2023-06-10T00:56:06;6.43;;;5.83;;
11111;SDS011;5609;49.466;8.468;2023-06-10T00:58:34;5.87;;;5.40;;
11111;SDS011;5609;49.466;8.468;2023-06-10T01:01:01;6.00;;;5.50;;
11111;SDS011;5609;49.466;8.468;2023-06-10T01:03:30;6.80;;;5.70;;
11111;SDS011;5609;49.466;8.468;2023-06-10T01:06:03;6.13;;;5.63;;
11111;SDS011;5609;49.466;8.468;2023-06-10T01:08:35;6.70;;;6.00;;
11111;SDS011;5609;49.466;8.468;2023-06-10T01:11:05;6.20;;;5.60;;
11111;SDS011;5609;49.466;8.468;2023-06-10T01:13:34;6.13;;;5.63;;
11111;SDS011;5609;49.466;8.468;2023-06-10T01:16:03;6.00;;;5.50;;
11111;SDS011;5609;49.466;8.468;2023-06-10T01:18:31;5.63;;;5.23;;
11111;SDS011;5609;49.466;8.468;2023-06-10T01:20:58;6.67;;;6.07;;
11111;SDS011;5609;49.466;8.468;2023-06-10T01:23:27;6.13;;;5.60;;
11111;SDS011;5609;49.466;8.468;2023-06-10T01:25:57;6.13;;;5.63;;
11111;SDS011;5609;49.466;8.468;2023-06-10T01:28:27;6.63;;;5.97;;
11111;SDS011;5609;49.466;8.468;2023-06-10T01:30:59;6.20;;;5.70;;
11111;SDS011;5609;49.466;8.468;2023-06-10T01:33:27;6.10;;;5.60;;
11111;SDS011;5609;49.466;8.468;2023-06-10T01:35:55;5.80;;;5.30;;
11111;SDS011;5609;49.466;8.468;2023-06-10T01:38:23;6.10;;;5.60;;
11111;SDS011;5609;49.466;8.468;2023-06-10T01:40:52;6.27;;;5.77;;
11111;SDS011;5609;49.466;8.468;2023-06-10T01:43:19;5.80;;;5.30;;
11111;SDS011;5609;49.466;8.468;2023-06-10T01:45:46;6.00;;;5.60;;
11111;SDS011;5609;49.466;8.468;2023-06-10T01:48:13;6.00;;;5.50;;
11111;SDS011;5609;49.466;8.468;2023-06-10T01:50:40;5.90;;;5.40;;
11111;SDS011;5609;49.466;8.468;2023-06-10T01:53:09;5.73;;;5.33;;
11111;SDS011;5609;49.466;8.468;2023-06-10T01:55:36;5.77;;;5.27;;
11111;SDS011;5609;49.466;8.468;2023-06-10T01:58:04;6.93;;;5.40;;
11111;SDS011;5609;49.466;8.468;2023-06-10T02:00:31;5.83;;;5.33;;
11111;SDS011;5609;49.466;8.468;2023-06-10T02:02:58;6.30;;;5.70;;
11111;SDS011;5609;49.466;8.468;2023-06-10T02:05:25;6.10;;;5.50;;
11111;SDS011;5609;49.466;8.468;2023-06-10T02:07:52;6.43;;;5.50;;
11111;SDS011;5609;49.466;8.468;2023-06-10T02:10:19;5.90;;;5.40;;
11111;SDS011;5609;49.466;8.468;2023-06-10T02:12:46;5.97;;;5.47;;
11111;SDS011;5609;49.466;8.468;2023-06-10T02:15:14;5.87;;;5.37;;
11111;SDS011;5609;49.466;8.468;2023-06-10T02:17:41;5.50;;;5.10;;
11111;SDS011;5609;49.466;8.468;2023-06-10T02:20:10;5.50;;;5.10;;
11111;SDS011;5609;49.466;8.468;2023-06-10T02:22:38;5.60;;;5.10;;
11111;SDS011;5609;49.466;8.468;2023-06-10T02:25:05;6.00;;;5.40;;
11111;SDS011;5609;49.466;8.468;2023-06-10T02:27:33;5.67;;;5.20;;
11111;SDS011;5609;49.466;8.468;2023-06-10T02:30:00;5.70;;;5.20;;
11111;SDS011;5609;49.466;8.468;2023-06-10T02:32:28;5.53;;;5.00;;
11111;SDS011;5609;49.466;8.468;2023-06-10T02:34:55;5.93;;;5.20;;
11111;SDS011;5609;49.466;8.468;2023-06-10T02:37:22;5.60;;;5.13;;
11111;SDS011;5609;49.466;8.468;2023-06-10T02:39:49;6.20;;;5.60;;
11111;SDS011;5609;49.466;8.468;2023-06-10T02:42:16;5.40;;;5.00;;
11111;SDS011;5609;49.466;8.468;2023-06-10T02:44:44;5.97;;;5.47;;
11111;SDS011;5609;49.466;8.468;2023-06-10T02:47:11;6.03;;;5.53;;
11111;SDS011;5609;49.466;8.468;2023-06-10T02:49:39;6.40;;;5.90;;
11111;SDS011;5609;49.466;8.468;2023-06-10T02:52:06;6.30;;;5.70;;
11111;SDS011;5609;49.466;8.468;2023-06-10T02:54:34;6.40;;;5.80;;
11111;SDS011;5609;49.466;8.468;2023-06-10T02:57:01;6.20;;;5.70;;
11111;SDS011;5609;49.466;8.468;2023-06-10T02:59:28;6.60;;;6.00;;
11111;SDS011;5609;49.466;8.468;2023-06-10T03:01:55;6.10;;;5.60;;
11111;SDS011;5609;49.466;8.468;2023-06-10T03:04:22;6.37;;;5.87;;
11111;SDS011;5609;49.466;8.468;2023-06-10T03:06:51;5.80;;;5.30;;
11111;SDS011;5609;49.466;8.468;2023-06-10T03:09:18;6.60;;;6.10;;
11111;SDS011;5609;49.466;8.468;2023-06-10T03:11:45;6.33;;;5.73;;
11111;SDS011;5609;49.466;8.468;2023-06-10T03:14:12;7.93;;;5.90;;
11111;SDS011;5609;49.466;8.468;2023-06-10T03:16:39;6.23;;;5.70;;
11111;SDS011;5609;49.466;8.468;2023-06-10T03:19:07;6.67;;;6.07;;
11111;SDS011;5609;49.466;8.468;2023-06-10T03:21:34;6.97;;;6.03;;
11111;SDS011;5609;49.466;8.468;2023-06-10T03:24:04;9.27;;;8.37;;
11111;SDS011;5609;49.466;8.468;2023-06-10T03:26:31;7.37;;;6.70;;
11111;SDS011;5609;49.466;8.468;2023-06-10T03:28:58;7.87;;;7.17;;
11111;SDS011;5609;49.466;8.468;2023-06-10T03:31:25;8.03;;;7.30;;
11111;SDS011;5609;49.466;8.468;2023-06-10T03:33:52;7.90;;;7.20;;
11111;SDS011;5609;49.466;8.468;2023-06-10T03:36:19;7.80;;;7.10;;
11111;SDS011;5609;49.466;8.468;2023-06-10T03:38:45;8.30;;;7.57;;
11111;SDS011;5609;49.466;8.468;2023-06-10T03:41:14;8.40;;;7.57;;
11111;SDS011;5609;49.466;8.468;2023-06-10T03:43:41;7.90;;;7.30;;
11111;SDS011;5609;49.466;8.468;2023-06-10T03:46:09;8.60;;;7.90;;
11111;SDS011;5609;49.466;8.468;2023-06-10T03:48:36;8.17;;;7.37;;
11111;SDS011;5609;49.466;8.468;2023-06-10T03:51:03;8.93;;;8.03;;
11111;SDS011;5609;49.466;8.468;2023-06-10T03:53:30;8.50;;;7.47;;
11111;SDS011;5609;49.466;8.468;2023-06-10T03:55:57;8.10;;;7.40;;
11111;SDS011;5609;49.466;8.468;2023-06-10T03:58:26;7.50;;;6.70;;
11111;SDS011;5609;49.466;8.468;2023-06-10T04:00:53;8.00;;;7.20;;
11111;SDS011;5609;49.466;8.468;2023-06-10T04:03:20;8.70;;;7.90;;
11111;SDS011;5609;49.466;8.468;2023-06-10T04:05:47;8.33;;;7.63;;
11111;SDS011;5609;49.466;8.468;2023-06-10T04:08:15;8.53;;;7.83;;
11111;SDS011;5609;49.466;8.468;2023-06-10T04:10:42;8.90;;;8.17;;
11111;SDS011;5609;49.466;8.468;2023-06-10T04:13:09;9.13;;;7.90;;
11111;SDS011;5609;49.466;8.468;2023-06-10T04:15:37;9.73;;;8.63;;
11111;SDS011;5609;49.466;8.468;2023-06-10T04:18:06;8.70;;;7.90;;
11111;SDS011;5609;49.466;8.468;2023-06-10T04:20:33;8.80;;;8.00;;
11111;SDS011;5609;49.466;8.468;2023-06-10T04:23:00;8.93;;;8.23;;
11111;SDS011;5609;49.466;8.468;2023-06-10T04:25:27;9.53;;;8.73;;
11111;SDS011;5609;49.466;8.468;2023-06-10T04:27:54;9.50;;;8.80;;
11111;SDS011;5609;49.466;8.468;2023-06-10T04:30:21;9.87;;;8.97;;
11111;SDS011;5609;49.466;8.468;2023-06-10T04:32:49;9.90;;;9.10;;
11111;SDS011;5609;49.466;8.468;2023-06-10T04:35:17;9.97;;;8.93;;
11111;SDS011;5609;49.466;8.468;2023-06-10T04:37:44;10.57;;;9.37;;
11111;SDS011;5609;49.466;8.468;2023-06-10T04:40:11;11.20;;;10.03;;
11111;SDS011;5609;49.466;8.468;2023-06-10T04:42:38;10.53;;;9.53;;
11111;SDS011;5609;49.466;8.468;2023-06-10T04:45:06;10.90;;;9.80;;
11111;SDS011;5609;49.466;8.468;2023-06-10T04:47:33;11.20;;;10.20;;
11111;SDS011;5609;49.466;8.468;2023-06-10T04:50:02;11.67;;;10.67;;
11111;SDS011;5609;49.466;8.468;2023-06-10T04:52:30;11.07;;;10.00;;
11111;SDS011;5609;49.466;8.468;2023-06-10T04:54:58;11.43;;;10.23;;
11111;SDS011;5609;49.466;8.468;2023-06-10T04:57:25;10.97;;;9.97;;
11111;SDS011;5609;49.466;8.468;2023-06-10T04:59:52;10.60;;;9.70;;
11111;SDS011;5609;49.466;8.468;2023-06-10T05:02:19;10.80;;;9.70;;
11111;SDS011;5609;49.466;8.468;2023-06-10T05:04:46;10.67;;;9.77;;
11111;SDS011;5609;49.466;8.468;2023-06-10T05:07:15;10.47;;;9.60;;
11111;SDS011;5609;49.466;8.468;2023-06-10T05:09:42;10.40;;;9.37;;
11111;SDS011;5609;49.466;8.468;2023-06-10T05:12:09;11.23;;;10.23;;
11111;SDS011;5609;49.466;8.468;2023-06-10T05:14:36;11.30;;;10.20;;
11111;SDS011;5609;49.466;8.468;2023-06-10T05:17:03;12.00;;;10.80;;
11111;SDS011;5609;49.466;8.468;2023-06-10T05:19:31;11.23;;;10.00;;
11111;SDS011;5609;49.466;8.468;2023-06-10T05:21:58;10.37;;;9.37;;
11111;SDS011;5609;49.466;8.468;2023-06-10T05:24:26;11.37;;;10.27;;
11111;SDS011;5609;49.466;8.468;2023-06-10T05:26:53;10.50;;;9.57;;
11111;SDS011;5609;49.466;8.468;2023-06-10T05:29:20;10.37;;;9.43;;
11111;SDS011;5609;49.466;8.468;2023-06-10T05:31:47;10.00;;;9.20;;
11111;SDS011;5609;49.466;8.468;2023-06-10T05:34:14;9.47;;;8.50;;
11111;SDS011;5609;49.466;8.468;2023-06-10T05:36:41;9.57;;;8.67;;
11111;SDS011;5609;49.466;8.468;2023-06-10T05:39:09;9.37;;;8.47;;
11111;SDS011;5609;49.466;8.468;2023-06-10T05:41:37;9.30;;;8.50;;
11111;SDS011;5609;49.466;8.468;2023-06-10T05:44:04;9.73;;;8.10;;
11111;SDS011;5609;49.466;8.468;2023-06-10T05:46:31;8.37;;;7.53;;
11111;SDS011;5609;49.466;8.468;2023-06-10T05:48:58;8.50;;;7.70;;
11111;SDS011;5609;49.466;8.468;2023-06-10T05:51:25;8.67;;;7.87;;
11111;SDS011;5609;49.466;8.468;2023-06-10T05:53:53;8.77;;;7.97;;
11111;SDS011;5609;49.466;8.468;2023-06-10T05:56:20;8.80;;;8.00;;
11111;SDS011;5609;49.466;8.468;2023-06-10T05:58:48;10.07;;;8.50;;
11111;SDS011;5609;49.466;8.468;2023-06-10T06:01:15;8.97;;;8.10;;
11111;SDS011;5609;49.466;8.468;2023-06-10T06:03:42;10.80;;;9.83;;
11111;SDS011;5609;49.466;8.468;2023-06-10T06:06:09;11.23;;;10.00;;
11111;SDS011;5609;49.466;8.468;2023-06-10T06:08:36;10.63;;;9.63;;
11111;SDS011;5609;49.466;8.468;2023-06-10T06:11:03;11.73;;;9.77;;
11111;SDS011;5609;49.466;8.468;2023-06-10T06:13:30;10.27;;;9.20;;
11111;SDS011;5609;49.466;8.468;2023-06-10T06:15:59;10.10;;;9.20;;
11111;SDS011;5609;49.466;8.468;2023-06-10T06:18:26;9.53;;;8.60;;
11111;SDS011;5609;49.466;8.468;2023-06-10T06:20:53;10.07;;;9.13;;
11111;SDS011;5609;49.466;8.468;2023-06-10T06:23:20;10.77;;;8.73;;
11111;SDS011;5609;49.466;8.468;2023-06-10T06:25:47;10.07;;;8.00;;
11111;SDS011;5609;49.466;8.468;2023-06-10T06:28:14;7.97;;;7.23;;
11111;SDS011;5609;49.466;8.468;2023-06-10T06:30:41;7.53;;;6.70;;
11111;SDS011;5609;49.466;8.468;2023-06-10T06:33:09;8.03;;;6.50;;
11111;SDS011;5609;49.466;8.468;2023-06-10T06:35:36;7.23;;;6.60;;
11111;SDS011;5609;49.466;8.468;2023-06-10T06:38:03;7.17;;;6.57;;
11111;SDS011;5609;49.466;8.468;2023-06-10T06:40:30;7.13;;;6.50;;
11111;SDS011;5609;49.466;8.468;2023-06-10T06:42:57;12.63;;;6.53;;
11111;SDS011;5609;49.466;8.468;2023-06-10T06:45:24;6.83;;;5.77;;
11111;SDS011;5609;49.466;8.468;2023-06-10T06:47:51;6.23;;;5.63;;
11111;SDS011;5609;49.466;8.468;2023-06-10T06:50:19;6.20;;;5.60;;
11111;SDS011;5609;49.466;8.468;2023-06-10T06:52:46;6.27;;;5.33;;
11111;SDS011;5609;49.466;8.468;2023-06-10T06:55:13;6.40;;;5.63;;
11111;SDS011;5609;49.466;8.468;2023-06-10T06:57:40;9.40;;;5.40;;
11111;SDS011;5609;49.466;8.468;2023-06-10T07:00:08;5.67;;;5.10;;
11111;SDS011;5609;49.466;8.468;2023-06-10T07:02:35;5.60;;;5.10;;
11111;SDS011;5609;49.466;8.468;2023-06-10T07:05:02;7.67;;;5.13;;
11111;SDS011;5609;49.466;8.468;2023-06-10T07:07:30;5.77;;;5.00;;
11111;SDS011;5609;49.466;8.468;2023-06-10T07:09:57;5.60;;;5.10;;
11111;SDS011;5609;49.466;8.468;2023-06-10T07:12:24;5.47;;;4.97;;
11111;SDS011;5609;49.466;8.468;2023-06-10T07:14:51;5.03;;;4.60;;
11111;SDS011;5609;49.466;8.468;2023-06-10T07:17:18;5.00;;;4.50;;
11111;SDS011;5609;49.466;8.468;2023-06-10T07:19:45;6.60;;;4.83;;
11111;SDS011;5609;49.466;8.468;2023-06-10T07:22:12;4.97;;;4.47;;
11111;SDS011;5609;49.466;8.468;2023-06-10T07:24:41;4.67;;;4.27;;
11111;SDS011;5609;49.466;8.468;2023-06-10T07:27:08;4.90;;;4.50;;
11111;SDS011;5609;49.466;8.468;2023-06-10T07:29:35;4.83;;;4.33;;
11111;SDS011;5609;49.466;8.468;2023-06-10T07:32:02;7.27;;;4.50;;
11111;SDS011;5609;49.466;8.468;2023-06-10T07:34:29;4.20;;;3.90;;
11111;SDS011;5609;49.466;8.468;2023-06-10T07:36:56;4.93;;;4.50;;
11111;SDS011;5609;49.466;8.468;2023-06-10T07:39:23;5.17;;;4.40;;
11111;SDS011;5609;49.466;8.468;2023-06-10T07:41:52;4.40;;;4.00;;
11111;SDS011;5609;49.466;8.468;2023-06-10T07:44:22;5.30;;;4.80;;
11111;SDS011;5609;49.466;8.468;2023-06-10T07:46:49;4.77;;;4.37;;
11111;SDS011;5609;49.466;8.468;2023-06-10T07:49:15;4.70;;;4.30;;
11111;SDS011;5609;49.466;8.468;2023-06-10T07:51:42;4.60;;;4.20;;
11111;SDS011;5609;49.466;8.468;2023-06-10T07:54:09;4.30;;;3.90;;
11111;SDS011;5609;49.466;8.468;2023-06-10T07:56:37;4.80;;;4.40;;
11111;SDS011;5609;49.466;8.468;2023-06-10T07:59:06;4.63;;;4.20;;
11111;SDS011;5609;49.466;8.468;2023-06-10T08:01:33;5.63;;;4.77;;
11111;SDS011;5609;49.466;8.468;2023-06-10T08:04:00;4.87;;;4.47;;
11111;SDS011;5609;49.466;8.468;2023-06-10T08:06:28;5.13;;;4.20;;
11111;SDS011;5609;49.466;8.468;2023-06-10T08:08:54;4.40;;;4.10;;
11111;SDS011;5609;49.466;8.468;2023-06-10T08:11:22;7.27;;;4.37;;
11111;SDS011;5609;49.466;8.468;2023-06-10T08:13:49;4.40;;;4.10;;
11111;SDS011;5609;49.466;8.468;2023-06-10T08:16:17;4.87;;;4.43;;
11111;SDS011;5609;49.466;8.468;2023-06-10T08:18:44;4.63;;;4.23;;
11111;SDS011;5609;49.466;8.468;2023-06-10T08:21:11;5.13;;;4.63;;
11111;SDS011;5609;49.466;8.468;2023-06-10T08:23:38;4.90;;;4.50;;
11111;SDS011;5609;49.466;8.468;2023-06-10T08:26:05;5.00;;;4.53;;
11111;SDS011;5609;49.466;8.468;2023-06-10T08:28:32;5.07;;;4.63;;
11111;SDS011;5609;49.466;8.468;2023-06-10T08:30:59;5.10;;;4.60;;
11111;SDS011;5609;49.466;8.468;2023-06-10T08:33:27;5.10;;;4.60;;
11111;SDS011;5609;49.466;8.468;2023-06-10T08:35:54;9.03;;;6.43;;
11111;SDS011;5609;49.466;8.468;2023-06-10T08:38:21;5.00;;;4.50;;
11111;SDS011;5609;49.466;8.468;2023-06-10T08:40:48;5.10;;;4.63;;
11111;SDS011;5609;49.466;8.468;2023-06-10T08:43:17;4.90;;;4.50;;
11111;SDS011;5609;49.466;8.468;2023-06-10T08:45:46;4.73;;;4.33;;
11111;SDS011;5609;49.466;8.468;2023-06-10T08:48:15;5.40;;;4.37;;
11111;SDS011;5609;49.466;8.468;2023-06-10T08:50:44;4.90;;;4.40;;
11111;SDS011;5609;49.466;8.468;2023-06-10T08:53:13;4.97;;;4.47;;
11111;SDS011;5609;49.466;8.468;2023-06-10T08:55:43;5.73;;;3.97;;
11111;SDS011;5609;49.466;8.468;2023-06-10T08:58:13;5.63;;;4.43;;
11111;SDS011;5609;49.466;8.468;2023-06-10T09:00:40;4.90;;;4.50;;
11111;SDS011;5609;49.466;8.468;2023-06-10T09:03:07;4.50;;;4.20;;
11111;SDS011;5609;49.466;8.468;2023-06-10T09:05:34;4.37;;;4.00;;
11111;SDS011;5609;49.466;8.468;2023-06-10T09:08:03;4.97;;;4.10;;
11111;SDS011;5609;49.466;8.468;2023-06-10T09:10:30;4.67;;;4.33;;
11111;SDS011;5609;49.466;8.468;2023-06-10T09:12:57;4.90;;;4.47;;
11111;SDS011;5609;49.466;8.468;2023-06-10T09:15:24;5.57;;;5.07;;
11111;SDS011;5609;49.466;8.468;2023-06-10T09:17:51;5.87;;;5.30;;
11111;SDS011;5609;49.466;8.468;2023-06-10T09:20:18;5.63;;;5.17;;
11111;SDS011;5609;49.466;8.468;2023-06-10T09:22:45;5.83;;;5.00;;
11111;SDS011;5609;49.466;8.468;2023-06-10T09:25:14;5.63;;;5.17;;
11111;SDS011;5609;49.466;8.468;2023-06-10T09:27:45;5.80;;;5.10;;
11111;SDS011;5609;49.466;8.468;2023-06-10T09:30:23;6.17;;;5.40;;
11111;SDS011;5609;49.466;8.468;2023-06-10T09:32:52;6.40;;;5.70;;
11111;SDS011;5609;49.466;8.468;2023-06-10T09:35:19;6.30;;;5.70;;
11111;SDS011;5609;49.466;8.468;2023-06-10T09:37:46;6.97;;;5.70;;
11111;SDS011;5609;49.466;8.468;2023-06-10T09:40:14;6.37;;;5.83;;
11111;SDS011;5609;49.466;8.468;2023-06-10T09:42:41;6.90;;;6.20;;
11111;SDS011;5609;49.466;8.468;2023-06-10T09:45:08;6.00;;;5.50;;
11111;SDS011;5609;49.466;8.468;2023-06-10T09:47:35;6.70;;;6.10;;
11111;SDS011;5609;49.466;8.468;2023-06-10T09:50:02;6.57;;;5.73;;
11111;SDS011;5609;49.466;8.468;2023-06-10T09:52:29;6.17;;;5.67;;
11111;SDS011;5609;49.466;8.468;2023-06-10T09:54:59;6.63;;;6.13;;
11111;SDS011;5609;49.466;8.468;2023-06-10T09:57:29;6.90;;;6.20;;
11111;SDS011;5609;49.466;8.468;2023-06-10T09:59:59;7.40;;;5.83;;
11111;SDS011;5609;49.466;8.468;2023-06-10T10:02:26;6.17;;;5.53;;
11111;SDS011;5609;49.466;8.468;2023-06-10T10:04:53;6.57;;;5.93;;
11111;SDS011;5609;49.466;8.468;2023-06-10T10:07:20;6.33;;;5.77;;
11111;SDS011;5609;49.466;8.468;2023-06-10T10:09:47;6.60;;;6.10;;
11111;SDS011;5609;49.466;8.468;2023-06-10T10:12:14;7.20;;;6.60;;
11111;SDS011;5609;49.466;8.468;2023-06-10T10:14:43;7.47;;;6.20;;
11111;SDS011;5609;49.466;8.468;2023-06-10T10:17:13;6.27;;;5.77;;
11111;SDS011;5609;49.466;8.468;2023-06-10T10:19:43;6.47;;;5.87;;
11111;SDS011;5609;49.466;8.468;2023-06-10T10:22:15;6.23;;;5.67;;
11111;SDS011;5609;49.466;8.468;2023-06-10T10:24:46;5.93;;;5.50;;
11111;SDS011;5609;49.466;8.468;2023-06-10T10:27:17;7.10;;;6.00;;
11111;SDS011;5609;49.466;8.468;2023-06-10T10:29:46;7.50;;;6.40;;
11111;SDS011;5609;49.466;8.468;2023-06-10T10:32:14;6.67;;;6.03;;
11111;SDS011;5609;49.466;8.468;2023-06-10T10:34:43;6.53;;;5.93;;
11111;SDS011;5609;49.466;8.468;2023-06-10T10:37:13;6.17;;;5.63;;
11111;SDS011;5609;49.466;8.468;2023-06-10T10:39:40;6.07;;;5.57;;
11111;SDS011;5609;49.466;8.468;2023-06-10T10:42:07;6.60;;;6.00;;
11111;SDS011;5609;49.466;8.468;2023-06-10T10:44:35;6.80;;;5.63;;
11111;SDS011;5609;49.466;8.468;2023-06-10T10:47:04;6.10;;;5.50;;
11111;SDS011;5609;49.466;8.468;2023-06-10T10:49:34;7.73;;;4.20;;
11111;SDS011;5609;49.466;8.468;2023-06-10T10:52:02;4.33;;;3.93;;
11111;SDS011;5609;49.466;8.468;2023-06-10T10:54:30;5.07;;;4.00;;
11111;SDS011;5609;49.466;8.468;2023-06-10T10:57:10;5.03;;;4.00;;
11111;SDS011;5609;49.466;8.468;2023-06-10T10:59:44;4.03;;;3.63;;
11111;SDS011;5609;49.466;8.468;2023-06-10T11:02:16;4.43;;;4.03;;
11111;SDS011;5609;49.466;8.468;2023-06-10T11:04:44;4.37;;;3.80;;
11111;SDS011;5609;49.466;8.468;2023-06-10T11:07:11;4.10;;;3.80;;
11111;SDS011;5609;49.466;8.468;2023-06-10T11:09:40;5.13;;;3.47;;
11111;SDS011;5609;49.466;8.468;2023-06-10T11:12:24;3.70;;;3.40;;
11111;SDS011;5609;49.466;8.468;2023-06-10T11:14:53;3.63;;;3.33;;
11111;SDS011;5609;49.466;8.468;2023-06-10T11:17:22;3.73;;;3.27;;
11111;SDS011;5609;49.466;8.468;2023-06-10T11:19:49;3.70;;;3.40;;
11111;SDS011;5609;49.466;8.468;2023-06-10T11:22:16;3.80;;;3.50;;
11111;SDS011;5609;49.466;8.468;2023-06-10T11:24:47;3.70;;;3.10;;
11111;SDS011;5609;49.466;8.468;2023-06-10T11:27:14;3.50;;;3.20;;
11111;SDS011;5609;49.466;8.468;2023-06-10T11:29:54;3.70;;;3.13;;
11111;SDS011;5609;49.466;8.468;2023-06-10T11:32:23;3.97;;;3.67;;
11111;SDS011;5609;49.466;8.468;2023-06-10T11:34:51;3.75;;;3.45;;
11111;SDS011;5609;49.466;8.468;2023-06-10T11:37:18;3.42;;;3.20;;
11111;SDS011;5609;49.466;8.468;2023-06-10T11:39:46;3.53;;;3.13;;
11111;SDS011;5609;49.466;8.468;2023-06-10T11:42:13;3.28;;;3.08;;
11111;SDS011;5609;49.466;8.468;2023-06-10T11:44:43;5.70;;;3.50;;
11111;SDS011;5609;49.466;8.468;2023-06-10T11:47:13;4.63;;;3.33;;
11111;SDS011;5609;49.466;8.468;2023-06-10T11:49:42;3.90;;;3.47;;
11111;SDS011;5609;49.466;8.468;2023-06-10T11:52:09;3.63;;;3.22;;
11111;SDS011;5609;49.466;8.468;2023-06-10T11:54:36;3.83;;;3.50;;
11111;SDS011;5609;49.466;8.468;2023-06-10T11:57:03;3.33;;;3.13;;
11111;SDS011;5609;49.466;8.468;2023-06-10T11:59:33;3.85;;;3.30;;
11111;SDS011;5609;49.466;8.468;2023-06-10T12:02:00;3.17;;;2.97;;
11111;SDS011;5609;49.466;8.468;2023-06-10T12:04:27;3.33;;;3.10;;
11111;SDS011;5609;49.466;8.468;2023-06-10T12:06:55;3.30;;;3.00;;
11111;SDS011;5609;49.466;8.468;2023-06-10T12:09:22;3.35;;;3.10;;
11111;SDS011;5609;49.466;8.468;2023-06-10T12:11:50;3.40;;;3.10;;
11111;SDS011;5609;49.466;8.468;2023-06-10T12:16:59;3.92;;;3.30;;
11111;SDS011;5609;49.466;8.468;2023-06-10T12:19:26;3.40;;;3.10;;
11111;SDS011;5609;49.466;8.468;2023-06-10T12:21:53;3.35;;;3.15;;
11111;SDS011;5609;49.466;8.468;2023-06-10T12:24:22;3.25;;;2.95;;
11111;SDS011;5609;49.466;8.468;2023-06-10T12:26:48;5.30;;;3.28;;
11111;SDS011;5609;49.466;8.468;2023-06-10T12:29:21;3.92;;;3.58;;
11111;SDS011;5609;49.466;8.468;2023-06-10T12:31:52;4.10;;;3.05;;
11111;SDS011;5609;49.466;8.468;2023-06-10T12:34:27;3.42;;;3.08;;
11111;SDS011;5609;49.466;8.468;2023-06-10T12:36:54;4.43;;;3.10;;
11111;SDS011;5609;49.466;8.468;2023-06-10T12:39:22;3.90;;;3.35;;
11111;SDS011;5609;49.466;8.468;2023-06-10T12:41:49;4.50;;;3.33;;
11111;SDS011;5609;49.466;8.468;2023-06-10T12:44:17;3.35;;;3.15;;
11111;SDS011;5609;49.466;8.468;2023-06-10T12:46:44;3.55;;;3.25;;
11111;SDS011;5609;49.466;8.468;2023-06-10T12:49:18;3.90;;;3.60;;
11111;SDS011;5609;49.466;8.468;2023-06-10T12:51:46;3.67;;;3.38;;
11111;SDS011;5609;49.466;8.468;2023-06-10T12:54:14;3.63;;;3.30;;
11111;SDS011;5609;49.466;8.468;2023-06-10T12:56:42;4.10;;;3.70;;
11111;SDS011;5609;49.466;8.468;2023-06-10T12:59:09;3.67;;;3.30;;
11111;SDS011;5609;49.466;8.468;2023-06-10T13:01:37;3.78;;;3.38;;
11111;SDS011;5609;49.466;8.468;2023-06-10T13:04:04;3.75;;;3.00;;
11111;SDS011;5609;49.466;8.468;2023-06-10T13:06:32;5.22;;;3.42;;
11111;SDS011;5609;49.466;8.468;2023-06-10T13:09:01;4.03;;;3.28;;
11111;SDS011;5609;49.466;8.468;2023-06-10T13:11:28;3.60;;;3.30;;
11111;SDS011;5609;49.466;8.468;2023-06-10T13:13:57;3.70;;;3.40;;
11111;SDS011;5609;49.466;8.468;2023-06-10T13:16:24;3.58;;;3.30;;
11111;SDS011;5609;49.466;8.468;2023-06-10T13:18:53;3.67;;;3.38;;
11111;SDS011;5609;49.466;8.468;2023-06-10T13:21:20;3.42;;;3.22;;
11111;SDS011;5609;49.466;8.468;2023-06-10T13:23:47;3.70;;;3.40;;
11111;SDS011;5609;49.466;8.468;2023-06-10T13:26:15;3.55;;;3.28;;
11111;SDS011;5609;49.466;8.468;2023-06-10T13:28:42;3.92;;;3.47;;
11111;SDS011;5609;49.466;8.468;2023-06-10T13:31:10;3.38;;;3.17;;
11111;SDS011;5609;49.466;8.468;2023-06-10T13:33:37;3.70;;;3.40;;
11111;SDS011;5609;49.466;8.468;2023-06-10T13:36:05;4.35;;;3.67;;
11111;SDS011;5609;49.466;8.468;2023-06-10T13:38:32;3.50;;;3.20;;
11111;SDS011;5609;49.466;8.468;2023-06-10T13:40:59;3.58;;;3.28;;
11111;SDS011;5609;49.466;8.468;2023-06-10T13:43:26;3.80;;;3.50;;
11111;SDS011;5609;49.466;8.468;2023-06-10T13:45:54;3.83;;;3.40;;
11111;SDS011;5609;49.466;8.468;2023-06-10T13:48:22;3.70;;;3.40;;
11111;SDS011;5609;49.466;8.468;2023-06-10T13:50:49;4.15;;;3.40;;
11111;SDS011;5609;49.466;8.468;2023-06-10T13:53:16;7.78;;;3.10;;
11111;SDS011;5609;49.466;8.468;2023-06-10T13:55:43;3.30;;;3.00;;
11111;SDS011;5609;49.466;8.468;2023-06-10T13:58:10;4.60;;;3.10;;
11111;SDS011;5609;49.466;8.468;2023-06-10T14:00:37;3.33;;;3.13;;
11111;SDS011;5609;49.466;8.468;2023-06-10T14:03:04;3.38;;;3.17;;
11111;SDS011;5609;49.466;8.468;2023-06-10T14:05:32;3.22;;;2.85;;
11111;SDS011;5609;49.466;8.468;2023-06-10T14:07:59;3.30;;;3.00;;
11111;SDS011;5609;49.466;8.468;2023-06-10T14:10:26;3.88;;;3.28;;
11111;SDS011;5609;49.466;8.468;2023-06-10T14:12:53;4.57;;;4.10;;
11111;SDS011;5609;49.466;8.468;2023-06-10T14:15:20;3.60;;;2.97;;
11111;SDS011;5609;49.466;8.468;2023-06-10T14:17:47;3.08;;;2.88;;
11111;SDS011;5609;49.466;8.468;2023-06-10T14:20:14;3.50;;;3.20;;
11111;SDS011;5609;49.466;8.468;2023-06-10T14:22:42;3.58;;;2.92;;
11111;SDS011;5609;49.466;8.468;2023-06-10T14:25:09;3.20;;;2.90;;
11111;SDS011;5609;49.466;8.468;2023-06-10T14:27:37;3.40;;;3.10;;
11111;SDS011;5609;49.466;8.468;2023-06-10T14:30:04;3.20;;;3.00;;
11111;SDS011;5609;49.466;8.468;2023-06-10T14:32:31;3.20;;;3.00;;
11111;SDS011;5609;49.466;8.468;2023-06-10T14:34:58;3.13;;;2.90;;
11111;SDS011;5609;49.466;8.468;2023-06-10T14:37:25;4.63;;;2.97;;
11111;SDS011;5609;49.466;8.468;2023-06-10T14:39:54;3.10;;;2.80;;
11111;SDS011;5609;49.466;8.468;2023-06-10T14:42:21;3.10;;;2.90;;
11111;SDS011;5609;49.466;8.468;2023-06-10T14:44:48;3.10;;;2.90;;
11111;SDS011;5609;49.466;8.468;2023-06-10T14:47:15;3.80;;;3.20;;
11111;SDS011;5609;49.466;8.468;2023-06-10T14:49:42;3.35;;;3.13;;
11111;SDS011;5609;49.466;8.468;2023-06-10T14:52:09;3.40;;;3.13;;
11111;SDS011;5609;49.466;8.468;2023-06-10T14:54:36;3.13;;;2.92;;
11111;SDS011;5609;49.466;8.468;2023-06-10T14:57:05;3.00;;;2.80;;
11111;SDS011;5609;49.466;8.468;2023-06-10T14:59:32;3.08;;;2.83;;
11111;SDS011;5609;49.466;8.468;2023-06-10T15:02:00;2.80;;;2.60;;
11111;SDS011;5609;49.466;8.468;2023-06-10T15:04:27;3.00;;;2.50;;
11111;SDS011;5609;49.466;8.468;2023-06-10T15:06:54;2.83;;;2.63;;